sensor_id;sensor_type;location;lat;lon;timestamp;temperature;humidity
20442;DHT22;10380;52.102;20.614;2023-04-06T00:00:50;0.80;99.90
20442;DHT22;10380;52.102;20.614;2023-04-06T00:03:17;0.80;99.90
20442;DHT22;10380;52.102;20.614;2023-04-06T00:05:47;0.80;99.90
20442;DHT22;10380;52.102;20.614;2023-04-06T00:08:14;0.90;99.90
20442;DHT22;10380;52.102;20.614;2023-04-06T00:10:41;0.90;99.90
20442;DHT22;10380;52.102;20.614;2023-04-06T00:13:08;0.90;99.90
20442;DHT22;10380;52.102;20.614;2023-04-06T00:15:35;0.90;99.90
20442;DHT22;10380;52.102;20.614;2023-04-06T00:18:03;1.00;99.90
20442;DHT22;10380;52.102;20.614;2023-04-06T00:20:30;1.00;99.90
20442;DHT22;10380;52.102;20.614;2023-04-06T00:22:57;1.00;99.90
20442;DHT22;10380;52.102;20.614;2023-04-06T00:25:25;1.00;99.90
20442;DHT22;10380;52.102;20.614;2023-04-06T00:27:52;1.00;99.90
20442;DHT22;10380;52.102;20.614;2023-04-06T00:30:19;1.10;99.90
20442;DHT22;10380;52.102;20.614;2023-04-06T00:32:46;1.10;99.90
20442;DHT22;10380;52.102;20.614;2023-04-06T00:35:13;1.10;99.90
20442;DHT22;10380;52.102;20.614;2023-04-06T00:37:41;1.20;99.90
20442;DHT22;10380;52.102;20.614;2023-04-06T00:40:10;1.20;99.90
20442;DHT22;10380;52.102;20.614;2023-04-06T00:42:37;1.20;99.90
20442;DHT22;10380;52.102;20.614;2023-04-06T00:45:04;1.20;99.90
20442;DHT22;10380;52.102;20.614;2023-04-06T00:47:31;1.20;99.90
20442;DHT22;10380;52.102;20.614;2023-04-06T00:49:58;1.20;99.90
20442;DHT22;10380;52.102;20.614;2023-04-06T00:52:25;1.20;99.90
20442;DHT22;10380;52.102;20.614;2023-04-06T00:54:52;1.10;99.90
20442;DHT22;10380;52.102;20.614;2023-04-06T00:57:19;1.10;99.90
20442;DHT22;10380;52.102;20.614;2023-04-06T00:59:46;1.20;99.90
20442;DHT22;10380;52.102;20.614;2023-04-06T01:02:13;1.20;99.90
20442;DHT22;10380;52.102;20.614;2023-04-06T01:04:40;1.20;99.90
20442;DHT22;10380;52.102;20.614;2023-04-06T01:07:08;1.30;99.90
20442;DHT22;10380;52.102;20.614;2023-04-06T01:09:35;1.30;99.90
20442;DHT22;10380;52.102;20.614;2023-04-06T01:12:02;1.40;99.90
20442;DHT22;10380;52.102;20.614;2023-04-06T01:14:29;1.40;99.90
20442;DHT22;10380;52.102;20.614;2023-04-06T01:16:58;1.40;99.90
20442;DHT22;10380;52.102;20.614;2023-04-06T01:19:28;1.50;99.90
20442;DHT22;10380;52.102;20.614;2023-04-06T01:21:55;1.50;99.90
20442;DHT22;10380;52.102;20.614;2023-04-06T01:24:23;1.60;99.90
20442;DHT22;10380;52.102;20.614;2023-04-06T01:26:50;1.60;99.90
20442;DHT22;10380;52.102;20.614;2023-04-06T01:29:17;1.70;99.90
20442;DHT22;10380;52.102;20.614;2023-04-06T01:31:44;1.70;99.90
20442;DHT22;10380;52.102;20.614;2023-04-06T01:34:11;1.80;99.90
20442;DHT22;10380;52.102;20.614;2023-04-06T01:36:38;1.80;99.90
20442;DHT22;10380;52.102;20.614;2023-04-06T01:39:05;1.80;99.90
20442;DHT22;10380;52.102;20.614;2023-04-06T01:41:32;1.80;99.90
20442;DHT22;10380;52.102;20.614;2023-04-06T01:44:00;1.80;99.90
20442;DHT22;10380;52.102;20.614;2023-04-06T01:46:27;1.80;99.90
20442;DHT22;10380;52.102;20.614;2023-04-06T01:48:54;1.80;99.90
20442;DHT22;10380;52.102;20.614;2023-04-06T01:51:21;1.80;99.90
20442;DHT22;10380;52.102;20.614;2023-04-06T01:53:48;1.90;99.90
20442;DHT22;10380;52.102;20.614;2023-04-06T01:56:16;1.90;99.90
20442;DHT22;10380;52.102;20.614;2023-04-06T01:58:43;1.90;99.90
20442;DHT22;10380;52.102;20.614;2023-04-06T02:01:09;1.90;99.90
20442;DHT22;10380;52.102;20.614;2023-04-06T02:03:36;2.00;99.90
20442;DHT22;10380;52.102;20.614;2023-04-06T02:06:04;2.00;99.90
20442;DHT22;10380;52.102;20.614;2023-04-06T02:08:31;1.90;99.90
20442;DHT22;10380;52.102;20.614;2023-04-06T02:10:58;2.00;99.90
20442;DHT22;10380;52.102;20.614;2023-04-06T02:13:24;1.90;99.90
20442;DHT22;10380;52.102;20.614;2023-04-06T02:15:51;1.90;99.90
20442;DHT22;10380;52.102;20.614;2023-04-06T02:18:18;1.90;99.90
20442;DHT22;10380;52.102;20.614;2023-04-06T02:20:45;1.90;99.90
20442;DHT22;10380;52.102;20.614;2023-04-06T02:23:12;1.90;99.90
20442;DHT22;10380;52.102;20.614;2023-04-06T02:25:39;1.90;99.90
20442;DHT22;10380;52.102;20.614;2023-04-06T02:28:06;1.90;99.90
20442;DHT22;10380;52.102;20.614;2023-04-06T02:30:34;1.90;99.90
20442;DHT22;10380;52.102;20.614;2023-04-06T02:33:02;1.90;99.90
20442;DHT22;10380;52.102;20.614;2023-04-06T02:35:30;1.90;99.90
20442;DHT22;10380;52.102;20.614;2023-04-06T02:37:57;1.90;99.90
20442;DHT22;10380;52.102;20.614;2023-04-06T02:40:24;1.90;99.90
20442;DHT22;10380;52.102;20.614;2023-04-06T02:42:51;1.90;99.90
20442;DHT22;10380;52.102;20.614;2023-04-06T02:45:18;1.90;99.90
20442;DHT22;10380;52.102;20.614;2023-04-06T02:47:44;1.80;99.90
20442;DHT22;10380;52.102;20.614;2023-04-06T02:50:12;1.80;99.90
20442;DHT22;10380;52.102;20.614;2023-04-06T02:52:38;1.80;99.90
20442;DHT22;10380;52.102;20.614;2023-04-06T02:55:06;1.80;99.90
20442;DHT22;10380;52.102;20.614;2023-04-06T02:57:34;1.80;99.90
20442;DHT22;10380;52.102;20.614;2023-04-06T03:00:01;1.80;99.90
20442;DHT22;10380;52.102;20.614;2023-04-06T03:02:28;1.70;99.90
20442;DHT22;10380;52.102;20.614;2023-04-06T03:04:55;1.70;99.90
20442;DHT22;10380;52.102;20.614;2023-04-06T03:07:22;1.70;99.90
20442;DHT22;10380;52.102;20.614;2023-04-06T03:09:49;1.70;99.90
20442;DHT22;10380;52.102;20.614;2023-04-06T03:12:16;1.70;99.90
20442;DHT22;10380;52.102;20.614;2023-04-06T03:14:43;1.70;99.90
20442;DHT22;10380;52.102;20.614;2023-04-06T03:17:10;1.70;99.90
20442;DHT22;10380;52.102;20.614;2023-04-06T03:19:37;1.70;99.90
20442;DHT22;10380;52.102;20.614;2023-04-06T03:22:04;1.70;99.90
20442;DHT22;10380;52.102;20.614;2023-04-06T03:24:31;1.70;99.90
20442;DHT22;10380;52.102;20.614;2023-04-06T03:26:57;1.70;99.90
20442;DHT22;10380;52.102;20.614;2023-04-06T03:29:24;1.70;99.90
20442;DHT22;10380;52.102;20.614;2023-04-06T03:31:51;1.70;99.90
20442;DHT22;10380;52.102;20.614;2023-04-06T03:34:18;1.70;99.90
20442;DHT22;10380;52.102;20.614;2023-04-06T03:36:45;1.60;99.90
20442;DHT22;10380;52.102;20.614;2023-04-06T03:39:19;1.60;99.90
20442;DHT22;10380;52.102;20.614;2023-04-06T03:41:46;1.60;99.90
20442;DHT22;10380;52.102;20.614;2023-04-06T03:44:13;1.60;99.90
20442;DHT22;10380;52.102;20.614;2023-04-06T03:46:41;1.60;99.90
20442;DHT22;10380;52.102;20.614;2023-04-06T03:49:08;1.60;99.90
20442;DHT22;10380;52.102;20.614;2023-04-06T03:51:35;1.60;99.90
20442;DHT22;10380;52.102;20.614;2023-04-06T03:54:02;1.60;99.90
20442;DHT22;10380;52.102;20.614;2023-04-06T03:56:29;1.60;99.90
20442;DHT22;10380;52.102;20.614;2023-04-06T03:58:55;1.60;99.90
20442;DHT22;10380;52.102;20.614;2023-04-06T04:01:22;1.50;99.90
20442;DHT22;10380;52.102;20.614;2023-04-06T04:03:49;1.50;99.90
20442;DHT22;10380;52.102;20.614;2023-04-06T04:06:17;1.60;99.90
20442;DHT22;10380;52.102;20.614;2023-04-06T04:08:44;1.50;99.90
20442;DHT22;10380;52.102;20.614;2023-04-06T04:11:11;1.50;99.90
20442;DHT22;10380;52.102;20.614;2023-04-06T04:13:38;1.50;99.90
20442;DHT22;10380;52.102;20.614;2023-04-06T04:16:05;1.50;99.90
20442;DHT22;10380;52.102;20.614;2023-04-06T04:18:32;1.50;99.90
20442;DHT22;10380;52.102;20.614;2023-04-06T04:20:59;1.50;99.90
20442;DHT22;10380;52.102;20.614;2023-04-06T04:23:26;1.50;99.90
20442;DHT22;10380;52.102;20.614;2023-04-06T04:25:53;1.50;99.90
20442;DHT22;10380;52.102;20.614;2023-04-06T04:28:20;1.50;99.90
20442;DHT22;10380;52.102;20.614;2023-04-06T04:30:47;1.60;99.90
20442;DHT22;10380;52.102;20.614;2023-04-06T04:33:14;1.50;99.90
20442;DHT22;10380;52.102;20.614;2023-04-06T04:35:41;1.50;99.90
20442;DHT22;10380;52.102;20.614;2023-04-06T04:38:07;1.50;99.90
20442;DHT22;10380;52.102;20.614;2023-04-06T04:40:34;1.50;99.90
20442;DHT22;10380;52.102;20.614;2023-04-06T04:43:01;1.50;99.90
20442;DHT22;10380;52.102;20.614;2023-04-06T04:45:28;1.50;99.90
20442;DHT22;10380;52.102;20.614;2023-04-06T04:47:55;1.40;99.90
20442;DHT22;10380;52.102;20.614;2023-04-06T04:50:22;1.50;99.90
20442;DHT22;10380;52.102;20.614;2023-04-06T04:52:49;1.50;99.90
20442;DHT22;10380;52.102;20.614;2023-04-06T04:55:16;1.50;99.90
20442;DHT22;10380;52.102;20.614;2023-04-06T04:57:44;1.50;99.90
20442;DHT22;10380;52.102;20.614;2023-04-06T05:00:11;1.50;99.90
20442;DHT22;10380;52.102;20.614;2023-04-06T05:02:38;1.50;99.90
20442;DHT22;10380;52.102;20.614;2023-04-06T05:05:06;1.50;99.90
20442;DHT22;10380;52.102;20.614;2023-04-06T05:07:33;1.50;99.90
20442;DHT22;10380;52.102;20.614;2023-04-06T05:10:01;1.50;99.90
20442;DHT22;10380;52.102;20.614;2023-04-06T05:12:28;1.50;99.90
20442;DHT22;10380;52.102;20.614;2023-04-06T05:14:55;1.50;99.90
20442;DHT22;10380;52.102;20.614;2023-04-06T05:17:22;1.60;99.90
20442;DHT22;10380;52.102;20.614;2023-04-06T05:19:49;1.50;99.90
20442;DHT22;10380;52.102;20.614;2023-04-06T05:22:17;1.60;99.90
20442;DHT22;10380;52.102;20.614;2023-04-06T05:24:44;1.60;99.90
20442;DHT22;10380;52.102;20.614;2023-04-06T05:27:11;1.60;99.90
20442;DHT22;10380;52.102;20.614;2023-04-06T05:29:39;1.60;99.90
20442;DHT22;10380;52.102;20.614;2023-04-06T05:32:07;1.60;99.90
20442;DHT22;10380;52.102;20.614;2023-04-06T05:34:34;1.60;99.90
20442;DHT22;10380;52.102;20.614;2023-04-06T05:37:01;1.60;99.90
20442;DHT22;10380;52.102;20.614;2023-04-06T05:39:28;1.60;99.90
20442;DHT22;10380;52.102;20.614;2023-04-06T05:41:55;1.70;99.90
20442;DHT22;10380;52.102;20.614;2023-04-06T05:44:23;1.70;99.90
20442;DHT22;10380;52.102;20.614;2023-04-06T05:46:50;1.80;99.90
20442;DHT22;10380;52.102;20.614;2023-04-06T05:49:17;1.80;99.90
20442;DHT22;10380;52.102;20.614;2023-04-06T05:51:44;1.90;99.90
20442;DHT22;10380;52.102;20.614;2023-04-06T05:54:11;1.90;99.90
20442;DHT22;10380;52.102;20.614;2023-04-06T05:56:37;1.90;99.90
20442;DHT22;10380;52.102;20.614;2023-04-06T05:59:05;2.00;99.90
20442;DHT22;10380;52.102;20.614;2023-04-06T06:01:33;2.00;99.90
20442;DHT22;10380;52.102;20.614;2023-04-06T06:04:02;2.10;99.90
20442;DHT22;10380;52.102;20.614;2023-04-06T06:06:29;2.20;99.90
20442;DHT22;10380;52.102;20.614;2023-04-06T06:08:59;2.20;99.90
20442;DHT22;10380;52.102;20.614;2023-04-06T06:11:27;2.20;99.90
20442;DHT22;10380;52.102;20.614;2023-04-06T06:13:54;2.20;99.90
20442;DHT22;10380;52.102;20.614;2023-04-06T06:16:21;2.30;99.90
20442;DHT22;10380;52.102;20.614;2023-04-06T06:18:49;2.40;99.90
20442;DHT22;10380;52.102;20.614;2023-04-06T06:21:15;2.40;99.90
20442;DHT22;10380;52.102;20.614;2023-04-06T06:23:43;2.50;99.90
20442;DHT22;10380;52.102;20.614;2023-04-06T06:26:11;2.50;99.90
20442;DHT22;10380;52.102;20.614;2023-04-06T06:28:37;2.50;99.90
20442;DHT22;10380;52.102;20.614;2023-04-06T06:31:04;2.50;99.90
20442;DHT22;10380;52.102;20.614;2023-04-06T06:33:31;2.60;99.90
20442;DHT22;10380;52.102;20.614;2023-04-06T06:35:58;2.60;99.90
20442;DHT22;10380;52.102;20.614;2023-04-06T06:38:25;2.70;99.90
20442;DHT22;10380;52.102;20.614;2023-04-06T06:40:53;2.70;99.90
20442;DHT22;10380;52.102;20.614;2023-04-06T06:43:20;2.80;99.90
20442;DHT22;10380;52.102;20.614;2023-04-06T06:45:47;2.90;99.90
20442;DHT22;10380;52.102;20.614;2023-04-06T06:48:14;3.00;99.90
20442;DHT22;10380;52.102;20.614;2023-04-06T06:50:41;3.10;99.90
20442;DHT22;10380;52.102;20.614;2023-04-06T06:53:08;3.10;99.90
20442;DHT22;10380;52.102;20.614;2023-04-06T06:55:35;3.20;99.90
20442;DHT22;10380;52.102;20.614;2023-04-06T06:58:02;3.30;99.90
20442;DHT22;10380;52.102;20.614;2023-04-06T07:00:29;3.40;99.90
20442;DHT22;10380;52.102;20.614;2023-04-06T07:02:56;3.60;99.90
20442;DHT22;10380;52.102;20.614;2023-04-06T07:05:23;3.60;99.90
20442;DHT22;10380;52.102;20.614;2023-04-06T07:07:55;3.70;99.90
20442;DHT22;10380;52.102;20.614;2023-04-06T07:10:23;3.70;99.90
20442;DHT22;10380;52.102;20.614;2023-04-06T07:12:50;3.70;99.90
20442;DHT22;10380;52.102;20.614;2023-04-06T07:15:17;3.80;99.90
20442;DHT22;10380;52.102;20.614;2023-04-06T07:17:44;3.80;99.90
20442;DHT22;10380;52.102;20.614;2023-04-06T07:20:13;3.80;99.90
20442;DHT22;10380;52.102;20.614;2023-04-06T07:22:42;3.90;99.90
20442;DHT22;10380;52.102;20.614;2023-04-06T07:25:09;3.90;99.90
20442;DHT22;10380;52.102;20.614;2023-04-06T07:27:36;3.90;99.90
20442;DHT22;10380;52.102;20.614;2023-04-06T07:30:03;4.00;99.90
20442;DHT22;10380;52.102;20.614;2023-04-06T07:32:30;4.00;99.90
20442;DHT22;10380;52.102;20.614;2023-04-06T07:34:58;4.00;99.90
20442;DHT22;10380;52.102;20.614;2023-04-06T07:37:25;4.10;99.90
20442;DHT22;10380;52.102;20.614;2023-04-06T07:39:51;4.10;99.90
20442;DHT22;10380;52.102;20.614;2023-04-06T07:42:18;4.10;99.90
20442;DHT22;10380;52.102;20.614;2023-04-06T07:44:48;4.10;99.90
20442;DHT22;10380;52.102;20.614;2023-04-06T07:47:15;4.20;99.90
20442;DHT22;10380;52.102;20.614;2023-04-06T07:49:42;4.30;99.90
20442;DHT22;10380;52.102;20.614;2023-04-06T07:52:09;4.40;99.90
20442;DHT22;10380;52.102;20.614;2023-04-06T07:54:36;4.60;99.90
20442;DHT22;10380;52.102;20.614;2023-04-06T07:57:03;4.60;99.90
20442;DHT22;10380;52.102;20.614;2023-04-06T07:59:30;4.50;99.90
20442;DHT22;10380;52.102;20.614;2023-04-06T08:01:57;4.50;99.90
20442;DHT22;10380;52.102;20.614;2023-04-06T08:04:24;4.50;99.90
20442;DHT22;10380;52.102;20.614;2023-04-06T08:06:51;4.40;99.90
20442;DHT22;10380;52.102;20.614;2023-04-06T08:09:18;4.40;99.90
20442;DHT22;10380;52.102;20.614;2023-04-06T08:11:44;4.40;99.90
20442;DHT22;10380;52.102;20.614;2023-04-06T08:14:12;4.30;99.90
20442;DHT22;10380;52.102;20.614;2023-04-06T08:16:39;4.30;99.90
20442;DHT22;10380;52.102;20.614;2023-04-06T08:19:07;4.40;99.90
20442;DHT22;10380;52.102;20.614;2023-04-06T08:21:38;4.50;99.90
20442;DHT22;10380;52.102;20.614;2023-04-06T08:24:06;4.40;99.90
20442;DHT22;10380;52.102;20.614;2023-04-06T08:26:34;4.60;99.90
20442;DHT22;10380;52.102;20.614;2023-04-06T08:29:01;4.70;99.90
20442;DHT22;10380;52.102;20.614;2023-04-06T08:31:28;4.90;99.90
20442;DHT22;10380;52.102;20.614;2023-04-06T08:33:55;4.90;99.90
20442;DHT22;10380;52.102;20.614;2023-04-06T08:36:22;4.90;99.90
20442;DHT22;10380;52.102;20.614;2023-04-06T08:38:49;4.90;99.90
20442;DHT22;10380;52.102;20.614;2023-04-06T08:41:17;4.80;99.90
20442;DHT22;10380;52.102;20.614;2023-04-06T08:43:49;4.80;99.90
20442;DHT22;10380;52.102;20.614;2023-04-06T08:46:18;4.80;99.90
20442;DHT22;10380;52.102;20.614;2023-04-06T08:48:45;4.70;99.90
20442;DHT22;10380;52.102;20.614;2023-04-06T08:51:12;4.50;99.90
20442;DHT22;10380;52.102;20.614;2023-04-06T08:53:40;4.40;99.90
20442;DHT22;10380;52.102;20.614;2023-04-06T08:56:09;4.40;99.90
20442;DHT22;10380;52.102;20.614;2023-04-06T08:58:39;4.40;99.90
20442;DHT22;10380;52.102;20.614;2023-04-06T09:01:09;4.40;99.90
20442;DHT22;10380;52.102;20.614;2023-04-06T09:03:39;4.40;99.90
20442;DHT22;10380;52.102;20.614;2023-04-06T09:06:08;4.40;99.90
20442;DHT22;10380;52.102;20.614;2023-04-06T09:08:37;4.30;99.90
20442;DHT22;10380;52.102;20.614;2023-04-06T09:11:04;4.30;99.90
20442;DHT22;10380;52.102;20.614;2023-04-06T09:13:43;4.30;99.90
20442;DHT22;10380;52.102;20.614;2023-04-06T09:16:11;4.20;99.90
20442;DHT22;10380;52.102;20.614;2023-04-06T09:18:37;4.20;99.90
20442;DHT22;10380;52.102;20.614;2023-04-06T09:21:05;4.40;99.90
20442;DHT22;10380;52.102;20.614;2023-04-06T09:23:32;4.40;99.90
20442;DHT22;10380;52.102;20.614;2023-04-06T09:26:09;4.40;99.90
20442;DHT22;10380;52.102;20.614;2023-04-06T09:28:47;4.40;99.90
20442;DHT22;10380;52.102;20.614;2023-04-06T09:31:16;4.30;99.90
20442;DHT22;10380;52.102;20.614;2023-04-06T09:33:45;4.30;99.90
20442;DHT22;10380;52.102;20.614;2023-04-06T09:36:13;4.20;99.90
20442;DHT22;10380;52.102;20.614;2023-04-06T09:38:56;4.10;99.90
20442;DHT22;10380;52.102;20.614;2023-04-06T09:41:34;4.00;99.90
20442;DHT22;10380;52.102;20.614;2023-04-06T09:44:09;3.90;99.90
20442;DHT22;10380;52.102;20.614;2023-04-06T09:46:42;4.00;99.90
20442;DHT22;10380;52.102;20.614;2023-04-06T09:49:31;4.00;99.90
20442;DHT22;10380;52.102;20.614;2023-04-06T09:52:03;4.00;99.90
20442;DHT22;10380;52.102;20.614;2023-04-06T09:54:31;4.00;99.90
20442;DHT22;10380;52.102;20.614;2023-04-06T09:57:19;3.90;99.90
20442;DHT22;10380;52.102;20.614;2023-04-06T10:02:45;3.90;99.90
20442;DHT22;10380;52.102;20.614;2023-04-06T10:05:35;4.00;99.90
20442;DHT22;10380;52.102;20.614;2023-04-06T10:08:09;3.90;99.90
20442;DHT22;10380;52.102;20.614;2023-04-06T10:10:37;4.00;99.90
20442;DHT22;10380;52.102;20.614;2023-04-06T10:13:05;4.00;99.90
20442;DHT22;10380;52.102;20.614;2023-04-06T10:15:33;4.00;99.90
20442;DHT22;10380;52.102;20.614;2023-04-06T10:18:01;4.10;99.90
20442;DHT22;10380;52.102;20.614;2023-04-06T10:20:48;4.00;99.90
20442;DHT22;10380;52.102;20.614;2023-04-06T10:23:26;3.90;99.90
20442;DHT22;10380;52.102;20.614;2023-04-06T10:25:58;3.80;99.90
20442;DHT22;10380;52.102;20.614;2023-04-06T10:28:26;3.70;99.90
20442;DHT22;10380;52.102;20.614;2023-04-06T10:30:58;3.50;99.90
20442;DHT22;10380;52.102;20.614;2023-04-06T10:33:26;3.40;99.90
20442;DHT22;10380;52.102;20.614;2023-04-06T10:35:53;3.40;99.90
20442;DHT22;10380;52.102;20.614;2023-04-06T10:38:36;3.30;99.90
20442;DHT22;10380;52.102;20.614;2023-04-06T10:41:09;3.40;99.90
20442;DHT22;10380;52.102;20.614;2023-04-06T10:43:38;3.30;99.90
20442;DHT22;10380;52.102;20.614;2023-04-06T10:46:06;3.20;99.90
20442;DHT22;10380;52.102;20.614;2023-04-06T10:48:44;3.10;99.90
20442;DHT22;10380;52.102;20.614;2023-04-06T10:51:17;3.10;99.90
20442;DHT22;10380;52.102;20.614;2023-04-06T10:53:48;3.10;99.90
20442;DHT22;10380;52.102;20.614;2023-04-06T10:56:17;2.90;99.90
20442;DHT22;10380;52.102;20.614;2023-04-06T11:01:17;2.70;99.90
20442;DHT22;10380;52.102;20.614;2023-04-06T11:03:46;2.60;99.90
20442;DHT22;10380;52.102;20.614;2023-04-06T11:06:20;2.50;99.90
20442;DHT22;10380;52.102;20.614;2023-04-06T11:08:47;2.50;99.90
20442;DHT22;10380;52.102;20.614;2023-04-06T11:11:22;2.40;99.90
20442;DHT22;10380;52.102;20.614;2023-04-06T11:13:52;2.40;99.90
20442;DHT22;10380;52.102;20.614;2023-04-06T11:16:27;2.40;99.90
20442;DHT22;10380;52.102;20.614;2023-04-06T11:26:56;2.40;99.90
20442;DHT22;10380;52.102;20.614;2023-04-06T11:29:26;2.40;99.90
20442;DHT22;10380;52.102;20.614;2023-04-06T11:31:58;2.30;99.90
20442;DHT22;10380;52.102;20.614;2023-04-06T11:34:28;2.30;99.90
20442;DHT22;10380;52.102;20.614;2023-04-06T11:36:59;2.20;99.90
20442;DHT22;10380;52.102;20.614;2023-04-06T11:39:27;2.20;99.90
20442;DHT22;10380;52.102;20.614;2023-04-06T11:41:59;2.20;99.90
20442;DHT22;10380;52.102;20.614;2023-04-06T11:47:00;2.20;99.90
20442;DHT22;10380;52.102;20.614;2023-04-06T11:49:31;2.20;99.90
20442;DHT22;10380;52.102;20.614;2023-04-06T11:52:00;2.20;99.90
20442;DHT22;10380;52.102;20.614;2023-04-06T11:57:02;2.20;99.90
20442;DHT22;10380;52.102;20.614;2023-04-06T11:59:29;2.20;99.90
20442;DHT22;10380;52.102;20.614;2023-04-06T12:01:57;2.30;99.90
20442;DHT22;10380;52.102;20.614;2023-04-06T12:04:24;2.30;99.90
20442;DHT22;10380;52.102;20.614;2023-04-06T12:06:51;2.30;99.90
20442;DHT22;10380;52.102;20.614;2023-04-06T12:09:18;2.40;99.90
20442;DHT22;10380;52.102;20.614;2023-04-06T12:11:45;2.40;99.90
20442;DHT22;10380;52.102;20.614;2023-04-06T12:14:12;2.40;99.90
20442;DHT22;10380;52.102;20.614;2023-04-06T12:16:40;2.50;99.90
20442;DHT22;10380;52.102;20.614;2023-04-06T12:19:07;2.50;99.90
20442;DHT22;10380;52.102;20.614;2023-04-06T12:21:34;2.50;99.90
20442;DHT22;10380;52.102;20.614;2023-04-06T12:24:04;2.60;99.90
20442;DHT22;10380;52.102;20.614;2023-04-06T12:26:32;2.60;99.90
20442;DHT22;10380;52.102;20.614;2023-04-06T12:28:59;2.60;99.90
20442;DHT22;10380;52.102;20.614;2023-04-06T12:31:37;2.60;99.90
20442;DHT22;10380;52.102;20.614;2023-04-06T12:34:07;2.70;99.90
20442;DHT22;10380;52.102;20.614;2023-04-06T12:36:34;2.80;99.90
20442;DHT22;10380;52.102;20.614;2023-04-06T12:39:01;2.80;99.90
20442;DHT22;10380;52.102;20.614;2023-04-06T12:41:28;2.90;99.90
20442;DHT22;10380;52.102;20.614;2023-04-06T12:43:56;2.90;99.90
20442;DHT22;10380;52.102;20.614;2023-04-06T12:46:23;3.00;99.90
20442;DHT22;10380;52.102;20.614;2023-04-06T12:48:53;3.10;99.90
20442;DHT22;10380;52.102;20.614;2023-04-06T12:51:22;3.10;99.90
20442;DHT22;10380;52.102;20.614;2023-04-06T12:53:48;3.10;99.90
20442;DHT22;10380;52.102;20.614;2023-04-06T12:56:17;3.20;99.90
20442;DHT22;10380;52.102;20.614;2023-04-06T12:58:45;3.10;99.90
20442;DHT22;10380;52.102;20.614;2023-04-06T13:01:12;3.10;99.90
20442;DHT22;10380;52.102;20.614;2023-04-06T13:03:40;3.10;99.90
20442;DHT22;10380;52.102;20.614;2023-04-06T13:06:08;3.10;99.90
20442;DHT22;10380;52.102;20.614;2023-04-06T13:08:37;3.10;99.90
20442;DHT22;10380;52.102;20.614;2023-04-06T13:11:05;3.10;99.90
20442;DHT22;10380;52.102;20.614;2023-04-06T13:13:36;3.10;99.90
20442;DHT22;10380;52.102;20.614;2023-04-06T13:16:08;3.10;99.90
20442;DHT22;10380;52.102;20.614;2023-04-06T13:18:35;3.20;99.90
20442;DHT22;10380;52.102;20.614;2023-04-06T13:21:07;3.20;99.90
20442;DHT22;10380;52.102;20.614;2023-04-06T13:23:34;3.20;99.90
20442;DHT22;10380;52.102;20.614;2023-04-06T13:26:04;3.30;99.90
20442;DHT22;10380;52.102;20.614;2023-04-06T13:28:34;3.30;99.90
20442;DHT22;10380;52.102;20.614;2023-04-06T13:31:02;3.30;99.90
20442;DHT22;10380;52.102;20.614;2023-04-06T13:33:30;3.30;99.90
20442;DHT22;10380;52.102;20.614;2023-04-06T13:35:58;3.30;99.90
20442;DHT22;10380;52.102;20.614;2023-04-06T13:38:25;3.20;99.90
20442;DHT22;10380;52.102;20.614;2023-04-06T13:40:52;3.20;99.90
20442;DHT22;10380;52.102;20.614;2023-04-06T13:43:19;3.20;99.90
20442;DHT22;10380;52.102;20.614;2023-04-06T13:45:52;3.20;99.90
20442;DHT22;10380;52.102;20.614;2023-04-06T13:48:21;3.10;99.90
20442;DHT22;10380;52.102;20.614;2023-04-06T13:50:48;3.20;99.90
20442;DHT22;10380;52.102;20.614;2023-04-06T13:53:15;3.10;99.90
20442;DHT22;10380;52.102;20.614;2023-04-06T13:55:42;3.20;99.90
20442;DHT22;10380;52.102;20.614;2023-04-06T13:58:09;3.10;99.90
20442;DHT22;10380;52.102;20.614;2023-04-06T14:00:37;3.10;99.90
20442;DHT22;10380;52.102;20.614;2023-04-06T14:03:05;3.20;99.90
20442;DHT22;10380;52.102;20.614;2023-04-06T14:05:33;3.10;99.90
20442;DHT22;10380;52.102;20.614;2023-04-06T14:08:00;3.20;99.90
20442;DHT22;10380;52.102;20.614;2023-04-06T14:10:27;3.20;99.90
20442;DHT22;10380;52.102;20.614;2023-04-06T14:12:55;3.20;99.90
20442;DHT22;10380;52.102;20.614;2023-04-06T14:15:22;3.20;99.90
20442;DHT22;10380;52.102;20.614;2023-04-06T14:17:50;3.20;99.90
20442;DHT22;10380;52.102;20.614;2023-04-06T14:20:18;3.20;99.90
20442;DHT22;10380;52.102;20.614;2023-04-06T14:22:45;3.20;99.90
20442;DHT22;10380;52.102;20.614;2023-04-06T14:25:13;3.20;99.90
20442;DHT22;10380;52.102;20.614;2023-04-06T14:27:40;3.20;99.90
20442;DHT22;10380;52.102;20.614;2023-04-06T14:30:08;3.30;99.90
20442;DHT22;10380;52.102;20.614;2023-04-06T14:32:35;3.20;99.90
20442;DHT22;10380;52.102;20.614;2023-04-06T14:35:04;3.20;99.90
20442;DHT22;10380;52.102;20.614;2023-04-06T14:37:33;3.20;99.90
20442;DHT22;10380;52.102;20.614;2023-04-06T14:40:01;3.20;99.90
20442;DHT22;10380;52.102;20.614;2023-04-06T14:42:28;3.20;99.90
20442;DHT22;10380;52.102;20.614;2023-04-06T14:44:55;3.20;99.90
20442;DHT22;10380;52.102;20.614;2023-04-06T14:47:22;3.30;99.90
20442;DHT22;10380;52.102;20.614;2023-04-06T14:49:51;3.20;99.90
20442;DHT22;10380;52.102;20.614;2023-04-06T14:52:18;3.30;99.90
20442;DHT22;10380;52.102;20.614;2023-04-06T14:54:45;3.20;99.90
20442;DHT22;10380;52.102;20.614;2023-04-06T14:57:12;3.20;99.90
20442;DHT22;10380;52.102;20.614;2023-04-06T14:59:39;3.30;99.90
20442;DHT22;10380;52.102;20.614;2023-04-06T15:02:06;3.30;99.90
20442;DHT22;10380;52.102;20.614;2023-04-06T15:04:36;3.20;99.90
20442;DHT22;10380;52.102;20.614;2023-04-06T15:07:04;3.20;99.90
20442;DHT22;10380;52.102;20.614;2023-04-06T15:09:31;3.20;99.90
20442;DHT22;10380;52.102;20.614;2023-04-06T15:11:58;3.20;99.90
20442;DHT22;10380;52.102;20.614;2023-04-06T15:14:25;3.30;99.90
20442;DHT22;10380;52.102;20.614;2023-04-06T15:16:52;3.30;99.90
20442;DHT22;10380;52.102;20.614;2023-04-06T15:19:19;3.30;99.90
20442;DHT22;10380;52.102;20.614;2023-04-06T15:21:45;3.30;99.90
20442;DHT22;10380;52.102;20.614;2023-04-06T15:24:13;3.30;99.90
20442;DHT22;10380;52.102;20.614;2023-04-06T15:26:39;3.40;99.90
20442;DHT22;10380;52.102;20.614;2023-04-06T15:29:07;3.40;99.90
20442;DHT22;10380;52.102;20.614;2023-04-06T15:31:34;3.40;99.90
20442;DHT22;10380;52.102;20.614;2023-04-06T15:34:05;3.40;99.90
20442;DHT22;10380;52.102;20.614;2023-04-06T15:36:34;3.30;99.90
20442;DHT22;10380;52.102;20.614;2023-04-06T15:39:03;3.30;99.90
20442;DHT22;10380;52.102;20.614;2023-04-06T15:41:30;3.40;99.90
20442;DHT22;10380;52.102;20.614;2023-04-06T15:43:57;3.30;99.90
20442;DHT22;10380;52.102;20.614;2023-04-06T15:46:25;3.30;99.90
20442;DHT22;10380;52.102;20.614;2023-04-06T15:48:54;3.30;99.90
20442;DHT22;10380;52.102;20.614;2023-04-06T15:51:21;3.40;99.90
20442;DHT22;10380;52.102;20.614;2023-04-06T15:53:49;3.30;99.90